Terminal Aerodrome Forecast
Issued by NWS Kansas City/Pleasant Hill, MO

Home | Current Version | Previous Version | Text Only | Print | Product List | Glossary On
Versions: 1 2 3 4 5 6 7 8 9 10 11 12 13 14 15 16 17 18 19 20 21 22
000
FTUS43 KEAX 262300 RRA
TAFMCI
TAF
KMCI 262342Z 2700/2724 35005KT P6SM SCT015 OVC030
     FM270300 32009KT 5SM -RA BR OVC008
     FM270700 30012KT P6SM OVC009
     FM271700 31011KT P6SM BKN015
     FM272000 31009KT P6SM SCT025=

USA.gov is the U.S. government's official web portal to all federal, state and local government web resources and services.